Time,TemperatureF,DewpointF,PressureIn,WindDirection,WindDirectionDegrees,WindSpeedMPH,WindSpeedGustMPH,Humidity,HourlyPrecipIn,Conditions,Clouds,dailyrainin,SoftwareType,DateUTC
2013-07-08 00:01:00,76.3,74.1,30.12,SW,235,0.0,0.0,93,0.00,,SCT020,0.00,VWS V14.01,2013-07-08 04:01:00,
2013-07-08 00:04:00,76.2,74.3,30.12,SW,235,0.0,0.0,94,0.00,,SCT020,0.00,VWS V14.01,2013-07-08 04:04:00,
2013-07-08 00:07:00,76.2,74.3,30.12,SW,234,0.0,0.0,94,0.00,,SCT020,0.00,VWS V14.01,2013-07-08 04:07:00,
2013-07-08 00:12:00,76.2,74.3,30.12,SW,235,0.0,0.0,94,0.00,,SCT020,0.00,VWS V14.01,2013-07-08 04:12:00,
2013-07-08 00:17:00,76.2,74.3,30.12,SW,235,0.0,0.0,94,0.00,,SCT020,0.00,VWS V14.01,2013-07-08 04:17:00,
2013-07-08 00:22:00,76.1,74.6,30.12,SW,235,0.0,0.0,95,0.00,,SCT020,0.00,VWS V14.01,2013-07-08 04:22:00,
2013-07-08 00:27:00,76.1,74.6,30.12,SW,235,0.0,0.0,95,0.00,,SCT020,0.00,VWS V14.01,2013-07-08 04:27:00,
2013-07-08 00:32:00,76.1,74.6,30.13,SW,235,0.0,0.0,95,0.00,,SCT020,0.00,VWS V14.01,2013-07-08 04:32:00,
2013-07-08 00:37:00,76.2,74.7,30.12,SW,235,0.0,0.0,95,0.00,,SCT020,0.00,VWS V14.01,2013-07-08 04:37:00,
2013-07-08 00:42:00,76.2,74.7,30.12,SW,235,0.0,0.0,95,0.00,,SCT020,0.00,VWS V14.01,2013-07-08 04:42:00,
2013-07-08 00:47:00,76.1,74.6,30.13,SW,234,0.0,0.0,95,0.00,,SCT020,0.00,VWS V14.01,2013-07-08 04:47:00,
2013-07-08 00:52:00,76.1,74.6,30.13,SW,235,0.0,0.0,95,0.00,,SCT020,0.00,VWS V14.01,2013-07-08 04:52:00,
2013-07-08 00:58:00,76.1,74.6,30.13,SW,235,0.0,0.0,95,0.00,,SCT020,0.00,VWS V14.01,2013-07-08 04:58:00,
2013-07-08 01:03:00,76.1,74.6,30.13,SW,235,0.0,0.0,95,0.00,,CLR,0.00,VWS V14.01,2013-07-08 05:03:00,
2013-07-08 01:08:00,76.2,74.7,30.13,SW,235,0.0,0.0,95,0.00,,CLR,0.00,VWS V14.01,2013-07-08 05:08:00,
2013-07-08 01:13:00,76.2,74.7,30.13,SW,235,0.0,0.0,95,0.00,,CLR,0.00,VWS V14.01,2013-07-08 05:13:00,
2013-07-08 01:18:00,76.2,74.7,30.13,SW,235,0.0,0.0,95,0.00,,CLR,0.00,VWS V14.01,2013-07-08 05:18:00,
2013-07-08 01:23:00,76.2,74.7,30.12,SW,235,0.0,0.0,95,0.00,,CLR,0.00,VWS V14.01,2013-07-08 05:23:00,
2013-07-08 01:28:00,76.2,74.7,30.12,SW,235,0.0,0.0,95,0.00,,CLR,0.00,VWS V14.01,2013-07-08 05:28:00,
2013-07-08 01:33:00,76.1,74.6,30.12,SW,235,0.0,0.0,95,0.00,,CLR,0.00,VWS V14.01,2013-07-08 05:33:00,
2013-07-08 01:38:00,76.1,74.6,30.11,SW,235,0.0,0.0,95,0.00,,CLR,0.00,VWS V14.01,2013-07-08 05:38:00,
2013-07-08 01:44:00,76.0,74.5,30.11,SW,235,0.0,0.0,95,0.00,,CLR,0.00,VWS V14.01,2013-07-08 05:44:00,
2013-07-08 01:49:00,75.9,74.4,30.11,SW,235,0.0,0.0,95,0.00,,CLR,0.00,VWS V14.01,2013-07-08 05:49:00,
2013-07-08 01:54:00,75.7,74.5,30.11,SW,235,0.0,0.0,96,0.00,,CLR,0.00,VWS V14.01,2013-07-08 05:54:00,
2013-07-08 01:59:00,75.7,74.5,30.11,SW,235,0.0,0.0,96,0.00,,CLR,0.00,VWS V14.01,2013-07-08 05:59:00,
2013-07-08 02:04:00,75.7,74.5,30.11,SW,234,0.0,0.0,96,0.00,,CLR,0.00,VWS V14.01,2013-07-08 06:04:00,
2013-07-08 02:09:00,75.6,74.4,30.10,SW,235,0.0,0.0,96,0.00,,CLR,0.00,VWS V14.01,2013-07-08 06:09:00,
2013-07-08 02:14:00,75.5,74.3,30.10,SW,235,0.0,0.0,96,0.00,,CLR,0.00,VWS V14.01,2013-07-08 06:14:00,
2013-07-08 02:19:00,75.5,74.3,30.10,SW,234,0.0,0.0,96,0.00,,CLR,0.00,VWS V14.01,2013-07-08 06:19:00,
2013-07-08 02:24:00,75.4,74.2,30.10,SW,235,0.0,0.0,96,0.00,,CLR,0.00,VWS V14.01,2013-07-08 06:24:00,
2013-07-08 02:29:00,75.5,74.3,30.10,SW,235,0.0,0.0,96,0.00,,CLR,0.00,VWS V14.01,2013-07-08 06:29:00,
2013-07-08 02:35:00,75.4,74.2,30.10,SW,235,0.0,0.0,96,0.00,,CLR,0.00,VWS V14.01,2013-07-08 06:35:00,
2013-07-08 02:40:00,75.4,74.2,30.10,SW,235,0.0,0.0,96,0.00,,CLR,0.00,VWS V14.01,2013-07-08 06:40:00,
2013-07-08 02:45:00,75.4,74.2,30.09,SW,235,0.0,0.0,96,0.00,,CLR,0.00,VWS V14.01,2013-07-08 06:45:00,
2013-07-08 02:50:00,75.3,74.1,30.09,SW,235,0.0,0.0,96,0.00,,CLR,0.00,VWS V14.01,2013-07-08 06:50:00,
2013-07-08 02:55:00,75.2,74.0,30.09,SW,235,0.0,0.0,96,0.00,,CLR,0.00,VWS V14.01,2013-07-08 06:55:00,
2013-07-08 03:00:00,75.4,74.5,30.09,SW,235,0.0,0.0,97,0.00,,CLR,0.00,VWS V14.01,2013-07-08 07:00:00,
2013-07-08 03:05:00,75.4,74.5,30.09,SW,235,0.0,0.0,97,0.00,,CLR,0.00,VWS V14.01,2013-07-08 07:05:00,
2013-07-08 03:10:00,75.3,74.4,30.10,SW,235,0.0,0.0,97,0.00,,CLR,0.00,VWS V14.01,2013-07-08 07:10:00,
2013-07-08 03:15:00,75.3,74.4,30.10,SW,235,0.0,0.0,97,0.00,,CLR,0.00,VWS V14.01,2013-07-08 07:15:00,
2013-07-08 03:20:00,75.1,73.9,30.09,SW,234,0.0,0.0,96,0.00,,CLR,0.00,VWS V14.01,2013-07-08 07:20:00,
2013-07-08 03:26:00,75.1,74.2,30.09,SW,235,0.0,0.0,97,0.00,,CLR,0.00,VWS V14.01,2013-07-08 07:26:00,
2013-07-08 03:31:00,74.9,74.0,30.10,SW,235,0.0,0.0,97,0.00,,CLR,0.00,VWS V14.01,2013-07-08 07:31:00,
2013-07-08 03:36:00,74.9,74.0,30.10,SW,235,0.0,0.0,97,0.00,,CLR,0.00,VWS V14.01,2013-07-08 07:36:00,
2013-07-08 03:41:00,74.9,74.0,30.10,SW,235,0.0,0.0,97,0.00,,CLR,0.00,VWS V14.01,2013-07-08 07:41:00,
2013-07-08 03:46:00,74.8,73.9,30.10,SW,235,0.0,0.0,97,0.00,,CLR,0.00,VWS V14.01,2013-07-08 07:46:00,
2013-07-08 03:51:00,74.9,74.0,30.10,SW,234,0.0,0.0,97,0.00,,CLR,0.00,VWS V14.01,2013-07-08 07:51:00,
2013-07-08 03:56:00,74.8,73.9,30.10,SW,235,0.0,0.0,97,0.00,,CLR,0.00,VWS V14.01,2013-07-08 07:56:00,
2013-07-08 04:01:00,74.7,73.8,30.10,SW,235,0.0,0.0,97,0.00,,CLR,0.00,VWS V14.01,2013-07-08 08:01:00,
2013-07-08 04:06:00,74.7,73.8,30.10,SW,235,0.0,0.0,97,0.00,,CLR,0.00,VWS V14.01,2013-07-08 08:06:00,
2013-07-08 04:11:00,74.7,73.8,30.10,SW,235,0.0,0.0,97,0.00,,CLR,0.00,VWS V14.01,2013-07-08 08:11:00,
2013-07-08 04:17:00,74.6,73.7,30.10,SW,235,0.0,0.0,97,0.00,,CLR,0.00,VWS V14.01,2013-07-08 08:17:00,
2013-07-08 04:22:00,74.6,73.7,30.10,SW,235,0.0,0.0,97,0.00,,CLR,0.00,VWS V14.01,2013-07-08 08:22:00,
2013-07-08 04:27:00,74.6,73.7,30.10,SW,235,0.0,0.0,97,0.00,,CLR,0.00,VWS V14.01,2013-07-08 08:27:00,
2013-07-08 04:32:00,74.6,73.7,30.10,SW,235,0.0,0.0,97,0.00,,CLR,0.00,VWS V14.01,2013-07-08 08:32:00,
2013-07-08 04:37:00,74.6,73.7,30.10,SW,235,0.0,0.0,97,0.00,,CLR,0.00,VWS V14.01,2013-07-08 08:37:00,
2013-07-08 04:42:00,74.6,73.7,30.10,SW,235,0.0,0.0,97,0.00,,CLR,0.00,VWS V14.01,2013-07-08 08:42:00,
2013-07-08 04:47:00,74.6,73.7,30.10,SW,235,0.0,0.0,97,0.00,,CLR,0.00,VWS V14.01,2013-07-08 08:47:00,
2013-07-08 04:52:00,74.7,73.8,30.10,SW,235,0.0,0.0,97,0.00,,CLR,0.00,VWS V14.01,2013-07-08 08:52:00,
2013-07-08 04:57:00,74.6,73.7,30.10,SW,235,0.0,0.0,97,0.00,,CLR,0.00,VWS V14.01,2013-07-08 08:57:00,
2013-07-08 05:02:00,74.6,73.7,30.09,SW,235,0.0,0.0,97,0.00,,CLR,0.00,VWS V14.01,2013-07-08 09:02:00,
2013-07-08 05:07:00,74.5,73.6,30.09,SW,235,0.0,0.0,97,0.00,,CLR,0.00,VWS V14.01,2013-07-08 09:07:00,
2013-07-08 05:12:00,74.6,73.7,30.09,SW,235,0.0,0.0,97,0.00,,CLR,0.00,VWS V14.01,2013-07-08 09:12:00,
2013-07-08 05:18:00,74.5,73.6,30.09,SW,235,0.0,0.0,97,0.00,,CLR,0.00,VWS V14.01,2013-07-08 09:18:00,
2013-07-08 05:23:00,74.4,73.5,30.09,SW,235,0.0,0.0,97,0.00,,CLR,0.00,VWS V14.01,2013-07-08 09:23:00,
2013-07-08 05:28:00,74.3,73.4,30.09,SW,234,0.0,0.0,97,0.00,,CLR,0.00,VWS V14.01,2013-07-08 09:28:00,
2013-07-08 05:33:00,74.4,73.5,30.09,SW,235,0.0,0.0,97,0.00,,CLR,0.00,VWS V14.01,2013-07-08 09:33:00,
2013-07-08 05:38:00,74.4,73.5,30.09,SW,235,0.0,0.0,97,0.00,,CLR,0.00,VWS V14.01,2013-07-08 09:38:00,
2013-07-08 05:43:00,74.4,73.5,30.09,SW,235,0.0,0.0,97,0.00,,CLR,0.00,VWS V14.01,2013-07-08 09:43:00,
2013-07-08 05:48:00,74.4,73.5,30.09,SW,235,0.0,0.0,97,0.00,,CLR,0.00,VWS V14.01,2013-07-08 09:48:00,
2013-07-08 05:53:00,74.4,73.5,30.09,SW,234,0.0,0.0,97,0.00,,CLR,0.00,VWS V14.01,2013-07-08 09:53:00,
2013-07-08 05:58:00,74.3,73.4,30.10,SW,235,0.0,0.0,97,0.00,,CLR,0.00,VWS V14.01,2013-07-08 09:58:00,
2013-07-08 06:03:00,74.4,73.5,30.09,SW,235,0.0,0.0,97,0.00,,CLR,0.00,VWS V14.01,2013-07-08 10:03:00,
2013-07-08 06:09:00,74.4,73.5,30.10,SW,235,0.0,0.0,97,0.00,,CLR,0.00,VWS V14.01,2013-07-08 10:09:00,
2013-07-08 06:14:00,74.5,73.6,30.10,SW,235,0.0,0.0,97,0.00,,CLR,0.00,VWS V14.01,2013-07-08 10:14:00,
2013-07-08 06:19:00,74.4,73.5,30.10,SW,235,0.0,0.0,97,0.00,,CLR,0.00,VWS V14.01,2013-07-08 10:19:00,
2013-07-08 06:24:00,74.4,73.5,30.11,SW,234,0.0,0.0,97,0.00,,CLR,0.00,VWS V14.01,2013-07-08 10:24:00,
2013-07-08 06:29:00,74.3,73.4,30.11,SW,235,0.0,0.0,97,0.00,,CLR,0.00,VWS V14.01,2013-07-08 10:29:00,
2013-07-08 06:34:00,74.4,73.8,30.11,SW,235,0.0,0.0,98,0.00,,CLR,0.00,VWS V14.01,2013-07-08 10:34:00,
2013-07-08 06:39:00,74.4,73.8,30.11,SW,235,0.0,0.0,98,0.00,,CLR,0.00,VWS V14.01,2013-07-08 10:39:00,
2013-07-08 06:44:00,74.4,73.8,30.11,SW,235,0.0,0.0,98,0.00,,CLR,0.00,VWS V14.01,2013-07-08 10:44:00,
2013-07-08 06:49:00,74.4,73.8,30.11,SW,235,0.0,0.0,98,0.00,,CLR,0.00,VWS V14.01,2013-07-08 10:49:00,
2013-07-08 06:55:00,74.3,73.7,30.11,SW,235,0.0,0.0,98,0.00,,CLR,0.00,VWS V14.01,2013-07-08 10:55:00,
2013-07-08 07:00:00,74.4,73.8,30.11,SW,235,0.0,0.0,98,0.00,,CLR,0.00,VWS V14.01,2013-07-08 11:00:00,
2013-07-08 07:05:00,74.3,73.7,30.11,SW,235,0.0,0.0,98,0.00,,CLR,0.00,VWS V14.01,2013-07-08 11:05:00,
2013-07-08 07:10:00,74.3,73.7,30.11,SW,235,0.0,0.0,98,0.00,,CLR,0.00,VWS V14.01,2013-07-08 11:10:00,
2013-07-08 07:15:00,74.5,73.9,30.11,SW,235,0.0,0.0,98,0.00,,CLR,0.00,VWS V14.01,2013-07-08 11:15:00,
2013-07-08 07:20:00,74.5,73.9,30.12,SW,235,0.0,0.0,98,0.00,,CLR,0.00,VWS V14.01,2013-07-08 11:20:00,
2013-07-08 07:25:00,74.7,74.1,30.12,SW,235,0.0,0.0,98,0.00,,CLR,0.00,VWS V14.01,2013-07-08 11:25:00,
2013-07-08 07:30:00,74.8,74.2,30.12,SW,235,0.0,0.0,98,0.00,,CLR,0.00,VWS V14.01,2013-07-08 11:30:00,
2013-07-08 07:35:00,75.0,74.4,30.11,SW,235,0.0,0.0,98,0.00,,CLR,0.00,VWS V14.01,2013-07-08 11:35:00,
2013-07-08 07:40:00,75.2,74.6,30.11,SW,235,0.0,0.0,98,0.00,,CLR,0.00,VWS V14.01,2013-07-08 11:40:00,
2013-07-08 07:46:00,75.5,74.9,30.11,SW,235,0.0,0.0,98,0.00,,CLR,0.00,VWS V14.01,2013-07-08 11:46:00,
2013-07-08 07:51:00,75.8,75.2,30.11,SW,235,0.0,0.0,98,0.00,,CLR,0.00,VWS V14.01,2013-07-08 11:51:00,
2013-07-08 07:56:00,76.1,75.5,30.12,SW,224,0.0,1.0,98,0.00,,CLR,0.00,VWS V14.01,2013-07-08 11:56:00,
2013-07-08 08:01:00,76.3,75.7,30.12,SW,224,0.0,0.0,98,0.00,,CLR,0.00,VWS V14.01,2013-07-08 12:01:00,
2013-07-08 08:06:00,76.5,75.9,30.12,SW,218,0.0,0.0,98,0.00,,CLR,0.00,VWS V14.01,2013-07-08 12:06:00,
2013-07-08 08:11:00,76.7,76.1,30.12,SW,218,0.0,1.0,98,0.00,,CLR,0.00,VWS V14.01,2013-07-08 12:11:00,
2013-07-08 08:16:00,76.8,76.2,30.12,SW,215,0.0,2.0,98,0.00,,CLR,0.00,VWS V14.01,2013-07-08 12:16:00,
2013-07-08 08:21:00,77.1,76.5,30.12,SW,218,0.0,2.0,98,0.00,,CLR,0.00,VWS V14.01,2013-07-08 12:21:00,
2013-07-08 08:26:00,77.5,76.9,30.12,SW,228,0.0,2.0,98,0.00,,CLR,0.00,VWS V14.01,2013-07-08 12:26:00,
2013-07-08 08:32:00,77.6,76.7,30.12,SW,228,0.0,0.0,97,0.00,,CLR,0.00,VWS V14.01,2013-07-08 12:32:00,
2013-07-08 08:37:00,77.9,76.7,30.12,SW,219,0.0,1.0,96,0.00,,CLR,0.00,VWS V14.01,2013-07-08 12:37:00,
2013-07-08 08:42:00,78.2,76.7,30.12,West,274,0.0,1.0,95,0.00,,CLR,0.00,VWS V14.01,2013-07-08 12:42:00,
2013-07-08 08:47:00,78.5,76.9,30.12,WSW,242,0.0,1.0,95,0.00,,CLR,0.00,VWS V14.01,2013-07-08 12:47:00,
2013-07-08 08:52:00,79.0,76.8,30.12,SW,217,0.0,1.0,93,0.00,,CLR,0.00,VWS V14.01,2013-07-08 12:52:00,
2013-07-08 08:57:00,79.5,77.0,30.12,SSW,207,0.0,2.0,92,0.00,,CLR,0.00,VWS V14.01,2013-07-08 12:57:00,
2013-07-08 09:02:00,80.0,77.1,30.12,WSW,238,0.0,1.0,91,0.00,,FEW014,0.00,VWS V14.01,2013-07-08 13:02:00,
2013-07-08 09:07:00,80.4,77.2,30.13,SW,225,0.0,1.0,90,0.00,,FEW014,0.00,VWS V14.01,2013-07-08 13:07:00,
2013-07-08 09:12:00,80.8,77.6,30.13,SW,219,0.0,1.0,90,0.00,,FEW014,0.00,VWS V14.01,2013-07-08 13:12:00,
2013-07-08 09:17:00,81.2,77.3,30.13,SW,215,1.0,4.0,88,0.00,,FEW014,0.00,VWS V14.01,2013-07-08 13:17:00,
2013-07-08 09:23:00,81.5,76.9,30.13,SW,224,4.0,5.0,86,0.00,,FEW014,0.00,VWS V14.01,2013-07-08 13:23:00,
2013-07-08 09:28:00,81.9,76.9,30.13,SW,224,0.0,5.0,85,0.00,,FEW014,0.00,VWS V14.01,2013-07-08 13:28:00,
2013-07-08 09:33:00,82.6,76.9,30.14,SSW,212,0.0,1.0,83,0.00,,FEW014,0.00,VWS V14.01,2013-07-08 13:33:00,
2013-07-08 09:38:00,83.2,77.5,30.14,SSW,205,0.0,1.0,83,0.00,,FEW014,0.00,VWS V14.01,2013-07-08 13:38:00,
2013-07-08 09:43:00,83.6,77.5,30.14,SW,222,0.0,2.0,82,0.00,,FEW014,0.00,VWS V14.01,2013-07-08 13:43:00,
2013-07-08 09:48:00,84.0,77.2,30.14,SSE,153,0.0,2.0,80,0.00,,FEW014,0.00,VWS V14.01,2013-07-08 13:48:00,
2013-07-08 09:53:00,84.1,77.6,30.14,SSW,203,0.0,2.0,81,0.00,,FEW014,0.00,VWS V14.01,2013-07-08 13:53:00,
2013-07-08 09:58:00,84.3,77.5,30.14,SW,231,0.0,2.0,80,0.00,,FEW014,0.00,VWS V14.01,2013-07-08 13:58:00,
2013-07-08 10:00:00,84.3,77.5,30.14,SW,217,0.0,2.0,80,0.00,,FEW014,0.00,VWS V14.01,2013-07-08 14:00:00,
2013-07-08 10:05:00,84.2,77.4,30.14,SSW,206,0.0,2.0,80,0.00,,SCT035,0.00,VWS V14.01,2013-07-08 14:05:00,
2013-07-08 10:10:00,84.6,77.4,30.14,SW,232,1.0,2.0,79,0.00,,SCT035,0.00,VWS V14.01,2013-07-08 14:10:00,
2013-07-08 10:16:00,85.0,77.4,30.14,SW,225,0.0,2.0,78,0.00,,SCT035,0.00,VWS V14.01,2013-07-08 14:16:00,
2013-07-08 10:21:00,85.0,77.0,30.14,SSW,203,1.0,2.0,77,0.00,,SCT035,0.00,VWS V14.01,2013-07-08 14:21:00,
2013-07-08 10:26:00,85.4,77.4,30.14,WNW,285,0.0,2.0,77,0.00,,SCT035,0.00,VWS V14.01,2013-07-08 14:26:00,
2013-07-08 10:31:00,85.7,77.3,30.14,SW,231,1.0,1.0,76,0.00,,SCT035,0.00,VWS V14.01,2013-07-08 14:31:00,
2013-07-08 10:36:00,85.9,77.9,30.14,SW,219,0.0,1.0,77,0.00,,SCT035,0.00,VWS V14.01,2013-07-08 14:36:00,
2013-07-08 10:41:00,85.9,77.1,30.14,SW,218,0.0,2.0,75,0.00,,SCT035,0.00,VWS V14.01,2013-07-08 14:41:00,
2013-07-08 10:46:00,86.1,76.8,30.14,NW,307,0.0,2.0,74,0.00,,SCT035,0.00,VWS V14.01,2013-07-08 14:46:00,
2013-07-08 10:51:00,87.1,78.2,30.14,SW,225,1.0,2.0,75,0.00,,SCT035,0.00,VWS V14.01,2013-07-08 14:51:00,
2013-07-08 10:56:00,87.7,76.3,30.14,West,276,1.0,2.0,69,0.00,,SCT035,0.00,VWS V14.01,2013-07-08 14:56:00,
2013-07-08 11:02:00,88.2,76.8,30.14,West,267,0.0,1.0,69,0.00,,CLR,0.00,VWS V14.01,2013-07-08 15:02:00,
2013-07-08 11:07:00,88.9,77.8,30.14,West,264,0.0,1.0,70,0.00,,CLR,0.00,VWS V14.01,2013-07-08 15:07:00,
2013-07-08 11:12:00,89.4,77.0,30.14,NE,46,0.0,7.0,67,0.00,,CLR,0.00,VWS V14.01,2013-07-08 15:12:00,
2013-07-08 11:17:00,89.6,76.3,30.15,ENE,57,1.0,7.0,65,0.00,,CLR,0.00,VWS V14.01,2013-07-08 15:17:00,
2013-07-08 11:22:00,90.0,78.0,30.14,NE,51,0.0,7.0,68,0.00,,CLR,0.00,VWS V14.01,2013-07-08 15:22:00,
2013-07-08 11:27:00,90.4,77.0,30.14,ENE,68,1.0,7.0,65,0.00,,CLR,0.00,VWS V14.01,2013-07-08 15:27:00,
2013-07-08 11:32:00,90.7,77.3,30.14,ENE,64,0.0,1.0,65,0.00,,CLR,0.00,VWS V14.01,2013-07-08 15:32:00,
2013-07-08 11:37:00,91.1,77.2,30.15,East,81,0.0,4.0,64,0.00,,CLR,0.00,VWS V14.01,2013-07-08 15:37:00,
2013-07-08 11:43:00,92.0,76.6,30.15,ENE,63,0.0,4.0,61,0.00,,CLR,0.00,VWS V14.01,2013-07-08 15:43:00,
2013-07-08 11:48:00,92.3,77.4,30.15,East,81,0.0,4.0,62,0.00,,CLR,0.00,VWS V14.01,2013-07-08 15:48:00,
2013-07-08 11:53:00,92.9,78.0,30.15,SSE,151,0.0,4.0,62,0.00,,CLR,0.00,VWS V14.01,2013-07-08 15:53:00,
2013-07-08 11:58:00,93.2,77.3,30.14,SSE,154,1.0,4.0,60,0.00,,CLR,0.00,VWS V14.01,2013-07-08 15:58:00,
2013-07-08 12:03:00,92.5,76.6,30.14,SSE,153,0.0,2.0,60,0.00,,SCT055,0.00,VWS V14.01,2013-07-08 16:03:00,
2013-07-08 12:08:00,92.4,75.0,30.14,SSE,154,0.0,2.0,57,0.00,,SCT055,0.00,VWS V14.01,2013-07-08 16:08:00,
2013-07-08 12:13:00,92.9,77.0,30.14,SE,132,1.0,2.0,60,0.00,,SCT055,0.00,VWS V14.01,2013-07-08 16:13:00,
2013-07-08 12:18:00,93.4,76.4,30.14,SSE,153,0.0,2.0,58,0.00,,SCT055,0.00,VWS V14.01,2013-07-08 16:18:00,
2013-07-08 12:24:00,93.6,77.1,30.14,SSW,211,0.0,3.0,59,0.00,,SCT055,0.00,VWS V14.01,2013-07-08 16:24:00,
2013-07-08 12:29:00,94.1,76.6,30.14,SSW,194,0.0,3.0,57,0.00,,SCT055,0.00,VWS V14.01,2013-07-08 16:29:00,
2013-07-08 12:34:00,94.4,77.3,30.14,SSW,212,0.0,1.0,58,0.00,,SCT055,0.00,VWS V14.01,2013-07-08 16:34:00,
2013-07-08 12:39:00,94.3,76.2,30.14,SW,215,0.0,1.0,56,0.00,,SCT055,0.00,VWS V14.01,2013-07-08 16:39:00,
2013-07-08 12:44:00,93.7,76.7,30.13,SW,221,0.0,1.0,58,0.00,,SCT055,0.00,VWS V14.01,2013-07-08 16:44:00,
2013-07-08 12:49:00,93.0,76.6,30.13,SSW,198,0.0,1.0,59,0.00,,SCT055,0.00,VWS V14.01,2013-07-08 16:49:00,
2013-07-08 12:54:00,93.1,76.7,30.13,SSW,203,0.0,3.0,59,0.00,,SCT055,0.00,VWS V14.01,2013-07-08 16:54:00,
2013-07-08 12:59:00,93.1,78.2,30.13,SW,218,0.0,5.0,62,0.00,,SCT055,0.00,VWS V14.01,2013-07-08 16:59:00,
2013-07-08 13:04:00,93.7,77.2,30.13,SSW,201,0.0,0.0,59,0.00,,BKN070,0.00,VWS V14.01,2013-07-08 17:04:00,
2013-07-08 13:09:00,93.7,77.7,30.13,SSW,201,0.0,0.0,60,0.00,,BKN070,0.00,VWS V14.01,2013-07-08 17:09:00,
2013-07-08 13:14:00,93.0,77.1,30.13,SW,215,0.0,1.0,60,0.00,,BKN070,0.00,VWS V14.01,2013-07-08 17:14:00,
2013-07-08 13:20:00,93.1,76.7,30.13,SSW,211,0.0,1.0,59,0.00,,BKN070,0.00,VWS V14.01,2013-07-08 17:20:00,
2013-07-08 13:25:00,93.7,77.7,30.13,SSW,200,0.0,1.0,60,0.00,,BKN070,0.00,VWS V14.01,2013-07-08 17:25:00,
2013-07-08 13:30:00,94.4,77.3,30.13,SSW,206,0.0,1.0,58,0.00,,BKN070,0.00,VWS V14.01,2013-07-08 17:30:00,
2013-07-08 13:35:00,95.5,78.4,30.13,SW,215,0.0,1.0,58,0.00,,BKN070,0.00,VWS V14.01,2013-07-08 17:35:00,
2013-07-08 13:40:00,95.3,77.1,30.13,South,181,0.0,2.0,56,0.00,,BKN070,0.00,VWS V14.01,2013-07-08 17:40:00,
2013-07-08 13:45:00,94.2,76.1,30.13,ESE,115,0.0,2.0,56,0.00,,BKN070,0.00,VWS V14.01,2013-07-08 17:45:00,
2013-07-08 13:51:00,93.6,76.1,30.13,SSE,168,0.0,2.0,57,0.00,,BKN070,0.00,VWS V14.01,2013-07-08 17:51:00,
2013-07-08 13:57:00,94.3,75.7,30.13,South,181,0.0,2.0,55,0.00,,BKN070,0.00,VWS V14.01,2013-07-08 17:57:00,
2013-07-08 14:02:00,94.3,77.3,30.13,ESE,109,1.0,1.0,58,0.00,,SCT055,0.00,VWS V14.01,2013-07-08 18:02:00,
2013-07-08 14:07:00,94.4,78.9,30.13,ESE,115,0.0,1.0,61,0.00,,SCT055,0.00,VWS V14.01,2013-07-08 18:07:00,
2013-07-08 14:12:00,94.4,77.9,30.13,South,177,0.0,1.0,59,0.00,,SCT055,0.00,VWS V14.01,2013-07-08 18:12:00,
2013-07-08 14:17:00,94.7,77.6,30.13,South,178,0.0,1.0,58,0.00,,SCT055,0.00,VWS V14.01,2013-07-08 18:17:00,
2013-07-08 14:22:00,94.9,75.7,30.12,SSE,154,0.0,1.0,54,0.00,,SCT055,0.00,VWS V14.01,2013-07-08 18:22:00,
2013-07-08 14:27:00,94.3,77.3,30.12,South,178,0.0,1.0,58,0.00,,SCT055,0.00,VWS V14.01,2013-07-08 18:27:00,
2013-07-08 14:32:00,94.2,76.6,30.12,South,179,1.0,1.0,57,0.00,,SCT055,0.00,VWS V14.01,2013-07-08 18:32:00,
2013-07-08 14:37:00,93.0,76.6,30.12,South,179,0.0,1.0,59,0.00,,SCT055,0.00,VWS V14.01,2013-07-08 18:37:00,
2013-07-08 14:42:00,93.0,77.1,30.12,South,177,0.0,1.0,60,0.00,,SCT055,0.00,VWS V14.01,2013-07-08 18:42:00,
2013-07-08 14:47:00,92.8,76.9,30.12,South,174,0.0,2.0,60,0.00,,SCT055,0.00,VWS V14.01,2013-07-08 18:47:00,
2013-07-08 14:53:00,91.8,75.9,30.12,South,177,0.0,2.0,60,0.00,,SCT055,0.00,VWS V14.01,2013-07-08 18:53:00,
2013-07-08 14:58:00,91.5,76.2,30.12,South,190,0.0,5.0,61,0.00,,SCT055,0.00,VWS V14.01,2013-07-08 18:58:00,
2013-07-08 15:03:00,92.3,76.9,30.11,South,188,0.0,2.0,61,0.00,,BKN075,0.00,VWS V14.01,2013-07-08 19:03:00,
2013-07-08 15:09:00,93.0,77.1,30.11,South,190,0.0,5.0,60,0.00,,BKN075,0.00,VWS V14.01,2013-07-08 19:09:00,
2013-07-08 15:14:00,93.4,77.4,30.11,South,190,0.0,5.0,60,0.00,,BKN075,0.00,VWS V14.01,2013-07-08 19:14:00,
2013-07-08 15:19:00,93.0,75.5,30.11,South,191,0.0,5.0,57,0.00,,BKN075,0.00,VWS V14.01,2013-07-08 19:19:00,
2013-07-08 15:25:00,93.1,76.7,30.11,South,188,0.0,5.0,59,0.00,,BKN075,0.00,VWS V14.01,2013-07-08 19:25:00,
2013-07-08 15:30:00,93.8,76.3,30.11,South,189,1.0,5.0,57,0.00,,BKN075,0.00,VWS V14.01,2013-07-08 19:30:00,
2013-07-08 15:36:00,93.8,75.7,30.11,South,181,0.0,6.0,56,0.00,,BKN075,0.00,VWS V14.01,2013-07-08 19:36:00,
2013-07-08 15:41:00,92.7,75.8,30.11,South,181,1.0,6.0,58,0.00,,BKN075,0.00,VWS V14.01,2013-07-08 19:41:00,
2013-07-08 15:46:00,91.5,75.2,30.11,South,181,0.0,6.0,59,0.00,,BKN075,0.00,VWS V14.01,2013-07-08 19:46:00,
2013-07-08 15:52:00,90.8,76.0,30.10,South,181,2.0,6.0,62,0.00,,BKN075,0.00,VWS V14.01,2013-07-08 19:52:00,
2013-07-08 15:58:00,91.5,76.2,30.10,South,183,0.0,6.0,61,0.00,,BKN075,0.00,VWS V14.01,2013-07-08 19:58:00,
2013-07-08 16:03:00,91.1,76.3,30.10,South,181,0.0,5.0,62,0.00,,BKN060,0.00,VWS V14.01,2013-07-08 20:03:00,
2013-07-08 16:08:00,91.6,77.2,30.10,South,181,0.0,5.0,63,0.00,,BKN060,0.00,VWS V14.01,2013-07-08 20:08:00,
2013-07-08 16:14:00,91.8,76.4,30.09,South,181,0.0,5.0,61,0.00,,BKN060,0.00,VWS V14.01,2013-07-08 20:14:00,
2013-07-08 16:20:00,90.9,76.1,30.09,South,181,0.0,5.0,62,0.00,,BKN060,0.00,VWS V14.01,2013-07-08 20:20:00,
2013-07-08 16:25:00,90.4,77.0,30.09,South,181,0.0,5.0,65,0.00,,BKN060,0.00,VWS V14.01,2013-07-08 20:25:00,
2013-07-08 16:31:00,91.0,75.7,30.09,South,181,0.0,1.0,61,0.00,,BKN060,0.00,VWS V14.01,2013-07-08 20:31:00,
2013-07-08 16:37:00,91.0,75.7,30.09,South,181,0.0,4.0,61,0.00,,BKN060,0.00,VWS V14.01,2013-07-08 20:37:00,
2013-07-08 16:42:00,90.8,76.5,30.08,South,181,0.0,4.0,63,0.00,,BKN060,0.00,VWS V14.01,2013-07-08 20:42:00,
2013-07-08 16:47:00,91.4,76.1,30.08,South,181,1.0,4.0,61,0.00,,BKN060,0.00,VWS V14.01,2013-07-08 20:47:00,
2013-07-08 16:52:00,91.0,75.7,30.08,South,181,2.0,4.0,61,0.00,,BKN060,0.00,VWS V14.01,2013-07-08 20:52:00,
2013-07-08 16:59:00,90.1,75.8,30.08,South,181,0.0,4.0,63,0.00,,BKN060,0.00,VWS V14.01,2013-07-08 20:59:00,
2013-07-08 17:04:00,90.1,76.3,30.08,SW,224,0.0,3.0,64,0.00,,BKN070,0.00,VWS V14.01,2013-07-08 21:04:00,
2013-07-08 17:09:00,89.4,75.6,30.08,WSW,257,0.0,4.0,64,0.00,,BKN070,0.00,VWS V14.01,2013-07-08 21:09:00,
2013-07-08 17:15:00,89.4,76.6,30.08,South,169,0.0,4.0,66,0.00,,BKN070,0.00,VWS V14.01,2013-07-08 21:15:00,
2013-07-08 17:20:00,90.0,77.1,30.08,WSW,253,0.0,4.0,66,0.00,,BKN070,0.00,VWS V14.01,2013-07-08 21:20:00,
2013-07-08 17:26:00,89.7,77.3,30.08,WSW,248,0.0,4.0,67,0.00,,BKN070,0.00,VWS V14.01,2013-07-08 21:26:00,
2013-07-08 17:32:00,89.0,76.2,30.08,SW,235,0.0,1.0,66,0.00,,BKN070,0.00,VWS V14.01,2013-07-08 21:32:00,
2013-07-08 17:37:00,88.4,76.1,30.08,West,266,0.0,1.0,67,0.00,,BKN070,0.00,VWS V14.01,2013-07-08 21:37:00,
2013-07-08 17:42:00,88.5,75.2,30.08,West,259,0.0,5.0,65,0.00,,BKN070,0.00,VWS V14.01,2013-07-08 21:42:00,
2013-07-08 17:48:00,88.8,74.1,30.08,SW,221,2.0,6.0,62,0.00,,BKN070,0.00,VWS V14.01,2013-07-08 21:48:00,
2013-07-08 17:53:00,88.8,74.6,30.07,ESE,120,0.0,6.0,63,0.00,,BKN070,0.00,VWS V14.01,2013-07-08 21:53:00,
2013-07-08 17:59:00,89.2,75.0,30.07,SSW,208,0.0,6.0,63,0.00,,BKN070,0.00,VWS V14.01,2013-07-08 21:59:00,
2013-07-08 18:04:00,89.5,74.3,30.07,WSW,249,1.0,5.0,61,0.00,,SCT048,0.00,VWS V14.01,2013-07-08 22:04:00,
2013-07-08 18:09:00,89.3,74.6,30.07,SW,215,0.0,5.0,62,0.00,,SCT048,0.00,VWS V14.01,2013-07-08 22:09:00,
2013-07-08 18:15:00,89.3,75.1,30.07,SW,219,0.0,5.0,63,0.00,,SCT048,0.00,VWS V14.01,2013-07-08 22:15:00,
2013-07-08 18:20:00,89.3,75.5,30.07,SW,235,1.0,5.0,64,0.00,,SCT048,0.00,VWS V14.01,2013-07-08 22:20:00,
2013-07-08 18:25:00,89.2,75.0,30.07,WSW,241,0.0,5.0,63,0.00,,SCT048,0.00,VWS V14.01,2013-07-08 22:25:00,
2013-07-08 18:30:00,88.7,75.0,30.07,WSW,248,0.0,5.0,64,0.00,,SCT048,0.00,VWS V14.01,2013-07-08 22:30:00,
2013-07-08 18:35:00,88.3,75.1,30.07,SW,226,1.0,2.0,65,0.00,,SCT048,0.00,VWS V14.01,2013-07-08 22:35:00,
2013-07-08 18:40:00,88.1,75.3,30.07,WSW,248,0.0,2.0,66,0.00,,SCT048,0.00,VWS V14.01,2013-07-08 22:40:00,
2013-07-08 18:46:00,87.7,74.5,30.07,SW,224,1.0,5.0,65,0.00,,SCT048,0.00,VWS V14.01,2013-07-08 22:46:00,
2013-07-08 18:51:00,87.3,74.6,30.07,WSW,243,0.0,5.0,66,0.00,,SCT048,0.00,VWS V14.01,2013-07-08 22:51:00,
2013-07-08 18:57:00,86.8,74.5,30.07,WSW,248,0.0,5.0,67,0.00,,SCT048,0.00,VWS V14.01,2013-07-08 22:57:00,
2013-07-08 19:03:00,86.5,74.7,30.07,South,183,0.0,0.0,68,0.00,,CLR,0.00,VWS V14.01,2013-07-08 23:03:00,
2013-07-08 19:08:00,86.3,74.9,30.07,SSW,207,1.0,4.0,69,0.00,,CLR,0.00,VWS V14.01,2013-07-08 23:08:00,
2013-07-08 19:13:00,85.9,74.6,30.08,SSW,195,0.0,4.0,69,0.00,,CLR,0.00,VWS V14.01,2013-07-08 23:13:00,
2013-07-08 19:19:00,85.5,74.6,30.08,ESE,112,0.0,4.0,70,0.00,,CLR,0.00,VWS V14.01,2013-07-08 23:19:00,
2013-07-08 19:24:00,85.3,74.8,30.08,SW,232,0.0,4.0,71,0.00,,CLR,0.00,VWS V14.01,2013-07-08 23:24:00,
2013-07-08 19:30:00,85.1,75.1,30.08,WSW,249,0.0,4.0,72,0.00,,CLR,0.00,VWS V14.01,2013-07-08 23:30:00,
2013-07-08 19:36:00,84.7,74.7,30.08,SSW,208,1.0,1.0,72,0.00,,CLR,0.00,VWS V14.01,2013-07-08 23:36:00,
2013-07-08 19:42:00,84.3,74.7,30.08,SW,235,0.0,2.0,73,0.00,,CLR,0.00,VWS V14.01,2013-07-08 23:42:00,
2013-07-08 19:47:00,84.0,74.8,30.08,SSW,203,0.0,2.0,74,0.00,,CLR,0.00,VWS V14.01,2013-07-08 23:47:00,
2013-07-08 19:53:00,83.7,74.1,30.09,WSW,238,1.0,3.0,73,0.00,,CLR,0.00,VWS V14.01,2013-07-08 23:53:00,
2013-07-08 19:58:00,83.4,74.2,30.09,SSE,164,0.0,3.0,74,0.00,,CLR,0.00,VWS V14.01,2013-07-08 23:58:00,
2013-07-08 20:03:00,83.2,74.1,30.09,South,191,0.0,3.0,74,0.00,,CLR,0.00,VWS V14.01,2013-07-09 00:03:00,
2013-07-08 20:09:00,82.9,74.2,30.10,SSW,204,0.0,3.0,75,0.00,,CLR,0.00,VWS V14.01,2013-07-09 00:09:00,
2013-07-08 20:14:00,82.7,74.4,30.10,SSE,148,0.0,3.0,76,0.00,,CLR,0.00,VWS V14.01,2013-07-09 00:14:00,
2013-07-08 20:19:00,82.4,73.7,30.10,South,188,0.0,3.0,75,0.00,,CLR,0.00,VWS V14.01,2013-07-09 00:19:00,
2013-07-08 20:24:00,82.2,73.9,30.10,SW,215,0.0,3.0,76,0.00,,CLR,0.00,VWS V14.01,2013-07-09 00:24:00,
2013-07-08 20:29:00,81.9,74.0,30.10,SW,219,0.0,3.0,77,0.00,,CLR,0.00,VWS V14.01,2013-07-09 00:29:00,
2013-07-08 20:35:00,81.6,73.7,30.11,South,172,0.0,2.0,77,0.00,,CLR,0.00,VWS V14.01,2013-07-09 00:35:00,
2013-07-08 20:40:00,81.4,73.5,30.11,South,172,0.0,2.0,77,0.00,,CLR,0.00,VWS V14.01,2013-07-09 00:40:00,
2013-07-08 20:45:00,81.0,73.9,30.12,South,172,0.0,2.0,79,0.00,,CLR,0.00,VWS V14.01,2013-07-09 00:45:00,
2013-07-08 20:51:00,80.7,73.6,30.12,South,172,0.0,2.0,79,0.00,,CLR,0.00,VWS V14.01,2013-07-09 00:51:00,
2013-07-08 20:56:00,80.4,73.7,30.12,South,172,0.0,2.0,80,0.00,,CLR,0.00,VWS V14.01,2013-07-09 00:56:00,
2013-07-08 21:02:00,80.1,73.8,30.13,South,172,0.0,0.0,81,0.00,,CLR,0.00,VWS V14.01,2013-07-09 01:02:00,
2013-07-08 21:07:00,79.9,73.9,30.13,SSW,193,0.0,1.0,82,0.00,,CLR,0.00,VWS V14.01,2013-07-09 01:07:00,
2013-07-08 21:12:00,80.0,74.0,30.13,SSW,207,0.0,1.0,82,0.00,,CLR,0.00,VWS V14.01,2013-07-09 01:12:00,
2013-07-08 21:19:00,80.0,74.0,30.14,SW,225,0.0,1.0,82,0.00,,CLR,0.00,VWS V14.01,2013-07-09 01:19:00,
2013-07-08 21:24:00,80.0,74.0,30.14,SW,222,0.0,1.0,82,0.00,,CLR,0.00,VWS V14.01,2013-07-09 01:24:00,
2013-07-08 21:29:00,79.9,73.9,30.14,SW,222,0.0,1.0,82,0.00,,CLR,0.00,VWS V14.01,2013-07-09 01:29:00,
2013-07-08 21:34:00,79.8,74.2,30.15,SE,142,0.0,0.0,83,0.00,,CLR,0.00,VWS V14.01,2013-07-09 01:34:00,
2013-07-08 21:39:00,79.7,74.1,30.14,South,188,0.0,1.0,83,0.00,,CLR,0.00,VWS V14.01,2013-07-09 01:39:00,
2013-07-08 21:45:00,79.6,74.0,30.14,SW,228,0.0,1.0,83,0.00,,CLR,0.00,VWS V14.01,2013-07-09 01:45:00,
2013-07-08 21:50:00,79.4,74.2,30.14,SW,228,0.0,1.0,84,0.00,,CLR,0.00,VWS V14.01,2013-07-09 01:50:00,
2013-07-08 21:55:00,79.2,73.9,30.14,SW,228,0.0,1.0,84,0.00,,CLR,0.00,VWS V14.01,2013-07-09 01:55:00,
2013-07-08 22:00:00,79.0,73.8,30.15,SW,228,0.0,1.0,84,0.00,,CLR,0.00,VWS V14.01,2013-07-09 02:00:00,
2013-07-08 22:06:00,78.8,73.9,30.15,SW,228,0.0,0.0,85,0.00,,CLR,0.00,VWS V14.01,2013-07-09 02:06:00,
2013-07-08 22:11:00,78.6,73.7,30.15,SW,228,0.0,0.0,85,0.00,,CLR,0.00,VWS V14.01,2013-07-09 02:11:00,
2013-07-08 22:16:00,78.3,73.8,30.15,SW,228,0.0,0.0,86,0.00,,CLR,0.00,VWS V14.01,2013-07-09 02:16:00,
2013-07-08 22:21:00,78.1,73.6,30.15,SW,228,0.0,0.0,86,0.00,,CLR,0.00,VWS V14.01,2013-07-09 02:21:00,
2013-07-08 22:26:00,77.8,73.3,30.15,SW,228,0.0,0.0,86,0.00,,CLR,0.00,VWS V14.01,2013-07-09 02:26:00,
2013-07-08 22:32:00,77.6,73.4,30.15,SW,228,0.0,0.0,87,0.00,,CLR,0.00,VWS V14.01,2013-07-09 02:32:00,
2013-07-08 22:37:00,77.5,73.3,30.15,SW,228,0.0,0.0,87,0.00,,CLR,0.00,VWS V14.01,2013-07-09 02:37:00,
2013-07-08 22:43:00,77.3,73.5,30.15,SW,228,0.0,0.0,88,0.00,,CLR,0.00,VWS V14.01,2013-07-09 02:43:00,
2013-07-08 22:48:00,77.2,73.7,30.15,SW,228,0.0,0.0,89,0.00,,CLR,0.00,VWS V14.01,2013-07-09 02:48:00,
2013-07-08 22:54:00,77.2,73.7,30.16,SSW,211,0.0,2.0,89,0.00,,CLR,0.00,VWS V14.01,2013-07-09 02:54:00,
2013-07-08 23:00:00,77.1,73.6,30.16,SSW,211,0.0,2.0,89,0.00,,CLR,0.00,VWS V14.01,2013-07-09 03:00:00,
2013-07-08 23:05:00,77.0,73.5,30.16,SSW,211,0.0,0.0,89,0.00,,CLR,0.00,VWS V14.01,2013-07-09 03:05:00,
2013-07-08 23:11:00,76.9,73.8,30.16,SSW,211,0.0,0.0,90,0.00,,CLR,0.00,VWS V14.01,2013-07-09 03:11:00,
2013-07-08 23:17:00,76.8,73.7,30.15,SW,214,0.0,0.0,90,0.00,,CLR,0.00,VWS V14.01,2013-07-09 03:17:00,
2013-07-08 23:22:00,76.7,73.6,30.15,SW,214,0.0,0.0,90,0.00,,CLR,0.00,VWS V14.01,2013-07-09 03:22:00,
2013-07-08 23:28:00,76.5,73.3,30.15,SW,214,0.0,0.0,90,0.00,,CLR,0.00,VWS V14.01,2013-07-09 03:28:00,
2013-07-08 23:33:00,76.3,73.2,30.15,SW,214,0.0,0.0,90,0.00,,CLR,0.00,VWS V14.01,2013-07-09 03:33:00,
2013-07-08 23:39:00,76.2,73.4,30.15,SW,214,0.0,0.0,91,0.00,,CLR,0.00,VWS V14.01,2013-07-09 03:39:00,
2013-07-08 23:44:00,76.0,73.2,30.15,SW,214,0.0,0.0,91,0.00,,CLR,0.00,VWS V14.01,2013-07-09 03:44:00,
2013-07-08 23:49:00,75.9,73.1,30.15,SW,214,0.0,0.0,91,0.00,,CLR,0.00,VWS V14.01,2013-07-09 03:49:00,
2013-07-08 23:54:00,75.8,73.3,30.15,SW,214,0.0,0.0,92,0.00,,CLR,0.00,VWS V14.01,2013-07-09 03:54:00,
2013-07-08 23:59:00,75.7,73.2,30.15,SW,214,0.0,0.0,92,0.00,,CLR,0.00,VWS V14.01,2013-07-09 03:59:00,